Sao Paulo de Olivenca, Brazil
Current Conditions -  °F | °C
As of 1:00 PM on Wednesday 26 Nov 2014 (Local Time) from SKLT Reporting Station
Drizzle Drizzle  
Wind Chill: 77°   Ceiling: 7000
Heat Index: 78°   Visibility: 4mi
Dew Point: 75°   Wind: 0mph
Humidity: 94%   Direction: NA
Pressure: 29.87"   Gusts: NA
Location:  3.38°S, 68.87°W
Report Text: SKLT 261700Z 00000KT 7000 DZ FEW005 SCT012 OVC070 25/24 A2987 RERA
Loading
Personal Weather Stations






























Interactive Weather Map New forecast layout! Learn more

10-Day Weather Forecast

Advertisements
Track Severe Weather on mobile